sensor_id;sensor_type;location;lat;lon;timestamp;temperature;humidity
71523;HTU21D;59343;51.102;5.884;2022-09-09T00:02:23;17.75;81.63
71523;HTU21D;59343;51.102;5.884;2022-09-09T00:05:00;17.73;81.74
71523;HTU21D;59343;51.102;5.884;2022-09-09T00:07:45;17.70;81.65
71523;HTU21D;59343;51.102;5.884;2022-09-09T00:12:49;17.65;81.52
71523;HTU21D;59343;51.102;5.884;2022-09-09T00:15:25;17.63;81.40
71523;HTU21D;59343;51.102;5.884;2022-09-09T00:17:55;17.60;81.27
71523;HTU21D;59343;51.102;5.884;2022-09-09T00:20:35;17.58;81.19
71523;HTU21D;59343;51.102;5.884;2022-09-09T00:26:19;17.55;81.15
71523;HTU21D;59343;51.102;5.884;2022-09-09T00:31:38;17.52;80.83
71523;HTU21D;59343;51.102;5.884;2022-09-09T00:34:13;17.51;80.87
71523;HTU21D;59343;51.102;5.884;2022-09-09T00:36:41;17.49;80.98
71523;HTU21D;59343;51.102;5.884;2022-09-09T00:39:35;17.48;81.10
71523;HTU21D;59343;51.102;5.884;2022-09-09T00:42:14;17.46;81.14
71523;HTU21D;59343;51.102;5.884;2022-09-09T00:44:51;17.44;81.26
71523;HTU21D;59343;51.102;5.884;2022-09-09T00:58:08;17.44;81.23
71523;HTU21D;59343;51.102;5.884;2022-09-09T01:00:52;17.40;81.27
71523;HTU21D;59343;51.102;5.884;2022-09-09T01:03:36;17.40;81.25
71523;HTU21D;59343;51.102;5.884;2022-09-09T01:06:30;17.38;81.18
71523;HTU21D;59343;51.102;5.884;2022-09-09T01:17:17;17.26;81.67
71523;HTU21D;59343;51.102;5.884;2022-09-09T01:20:12;17.26;81.60
71523;HTU21D;59343;51.102;5.884;2022-09-09T01:28:39;17.18;81.67
71523;HTU21D;59343;51.102;5.884;2022-09-09T01:31:18;17.16;81.84
71523;HTU21D;59343;51.102;5.884;2022-09-09T01:33:46;17.13;81.91
71523;HTU21D;59343;51.102;5.884;2022-09-09T01:36:35;17.14;81.85
71523;HTU21D;59343;51.102;5.884;2022-09-09T01:39:04;17.15;81.89
71523;HTU21D;59343;51.102;5.884;2022-09-09T01:41:32;17.13;81.93
71523;HTU21D;59343;51.102;5.884;2022-09-09T01:44:06;17.10;82.05
71523;HTU21D;59343;51.102;5.884;2022-09-09T01:46:35;17.11;82.17
71523;HTU21D;59343;51.102;5.884;2022-09-09T01:49:05;17.14;82.10
71523;HTU21D;59343;51.102;5.884;2022-09-09T01:51:34;17.11;82.20
71523;HTU21D;59343;51.102;5.884;2022-09-09T01:54:04;17.15;82.31
71523;HTU21D;59343;51.102;5.884;2022-09-09T01:56:35;17.15;82.14
71523;HTU21D;59343;51.102;5.884;2022-09-09T02:02:17;17.09;82.33
71523;HTU21D;59343;51.102;5.884;2022-09-09T02:05:04;17.04;82.71
71523;HTU21D;59343;51.102;5.884;2022-09-09T02:07:42;17.05;82.73
71523;HTU21D;59343;51.102;5.884;2022-09-09T02:13:21;17.01;83.02
71523;HTU21D;59343;51.102;5.884;2022-09-09T02:18:27;17.04;83.01
71523;HTU21D;59343;51.102;5.884;2022-09-09T02:20:57;17.05;83.15
71523;HTU21D;59343;51.102;5.884;2022-09-09T02:23:25;17.06;83.10
71523;HTU21D;59343;51.102;5.884;2022-09-09T02:25:57;17.04;83.00
71523;HTU21D;59343;51.102;5.884;2022-09-09T02:28:29;17.07;83.04
71523;HTU21D;59343;51.102;5.884;2022-09-09T02:30:56;17.06;83.13
71523;HTU21D;59343;51.102;5.884;2022-09-09T02:33:44;17.05;83.16
71523;HTU21D;59343;51.102;5.884;2022-09-09T02:36:15;17.04;83.35
71523;HTU21D;59343;51.102;5.884;2022-09-09T02:38:46;17.04;83.35
71523;HTU21D;59343;51.102;5.884;2022-09-09T02:41:26;17.06;83.51
71523;HTU21D;59343;51.102;5.884;2022-09-09T02:43:54;17.06;83.53
71523;HTU21D;59343;51.102;5.884;2022-09-09T02:46:52;17.09;83.35
71523;HTU21D;59343;51.102;5.884;2022-09-09T02:55:50;17.11;83.23
71523;HTU21D;59343;51.102;5.884;2022-09-09T02:58:22;17.14;83.29
71523;HTU21D;59343;51.102;5.884;2022-09-09T03:01:02;17.15;83.20
71523;HTU21D;59343;51.102;5.884;2022-09-09T03:03:29;17.14;83.25
71523;HTU21D;59343;51.102;5.884;2022-09-09T03:05:56;17.17;83.17
71523;HTU21D;59343;51.102;5.884;2022-09-09T03:08:22;17.17;83.20
71523;HTU21D;59343;51.102;5.884;2022-09-09T03:10:49;17.17;83.26
71523;HTU21D;59343;51.102;5.884;2022-09-09T03:13:15;17.16;83.16
71523;HTU21D;59343;51.102;5.884;2022-09-09T03:15:41;17.18;83.20
71523;HTU21D;59343;51.102;5.884;2022-09-09T03:18:12;17.14;83.16
71523;HTU21D;59343;51.102;5.884;2022-09-09T03:20:38;17.14;83.30
71523;HTU21D;59343;51.102;5.884;2022-09-09T03:23:04;17.15;83.29
71523;HTU21D;59343;51.102;5.884;2022-09-09T03:25:30;17.17;83.29
71523;HTU21D;59343;51.102;5.884;2022-09-09T03:27:57;17.16;83.30
71523;HTU21D;59343;51.102;5.884;2022-09-09T03:30:26;17.13;83.31
71523;HTU21D;59343;51.102;5.884;2022-09-09T03:32:55;17.13;83.32
71523;HTU21D;59343;51.102;5.884;2022-09-09T03:35:23;17.11;83.36
71523;HTU21D;59343;51.102;5.884;2022-09-09T03:37:49;17.11;83.42
71523;HTU21D;59343;51.102;5.884;2022-09-09T03:40:16;17.13;83.52
71523;HTU21D;59343;51.102;5.884;2022-09-09T03:42:44;17.15;83.42
71523;HTU21D;59343;51.102;5.884;2022-09-09T03:45:10;17.16;83.49
71523;HTU21D;59343;51.102;5.884;2022-09-09T03:47:38;17.16;83.55
71523;HTU21D;59343;51.102;5.884;2022-09-09T03:50:07;17.17;83.55
71523;HTU21D;59343;51.102;5.884;2022-09-09T03:52:40;17.20;83.44
71523;HTU21D;59343;51.102;5.884;2022-09-09T03:55:12;17.18;83.32
71523;HTU21D;59343;51.102;5.884;2022-09-09T03:57:38;17.21;83.33
71523;HTU21D;59343;51.102;5.884;2022-09-09T04:00:32;17.22;83.25
71523;HTU21D;59343;51.102;5.884;2022-09-09T04:02:58;17.24;83.22
71523;HTU21D;59343;51.102;5.884;2022-09-09T04:05:24;17.26;83.07
71523;HTU21D;59343;51.102;5.884;2022-09-09T04:07:50;17.30;82.87
71523;HTU21D;59343;51.102;5.884;2022-09-09T04:10:17;17.33;82.82
71523;HTU21D;59343;51.102;5.884;2022-09-09T04:12:43;17.31;82.78
71523;HTU21D;59343;51.102;5.884;2022-09-09T04:15:09;17.34;82.68
71523;HTU21D;59343;51.102;5.884;2022-09-09T04:17:37;17.36;82.68
71523;HTU21D;59343;51.102;5.884;2022-09-09T04:20:03;17.38;82.64
71523;HTU21D;59343;51.102;5.884;2022-09-09T04:22:30;17.40;82.42
71523;HTU21D;59343;51.102;5.884;2022-09-09T04:24:57;17.43;82.38
71523;HTU21D;59343;51.102;5.884;2022-09-09T04:27:23;17.44;82.36
71523;HTU21D;59343;51.102;5.884;2022-09-09T04:29:49;17.47;82.40
71523;HTU21D;59343;51.102;5.884;2022-09-09T04:32:16;17.48;82.30
71523;HTU21D;59343;51.102;5.884;2022-09-09T04:34:42;17.49;82.36
71523;HTU21D;59343;51.102;5.884;2022-09-09T04:37:08;17.52;82.33
71523;HTU21D;59343;51.102;5.884;2022-09-09T04:39:35;17.54;82.33
71523;HTU21D;59343;51.102;5.884;2022-09-09T04:42:02;17.53;82.26
71523;HTU21D;59343;51.102;5.884;2022-09-09T04:44:28;17.54;82.00
71523;HTU21D;59343;51.102;5.884;2022-09-09T04:46:56;17.53;82.16
71523;HTU21D;59343;51.102;5.884;2022-09-09T04:49:21;17.54;81.94
71523;HTU21D;59343;51.102;5.884;2022-09-09T04:51:49;17.50;81.84
71523;HTU21D;59343;51.102;5.884;2022-09-09T04:54:16;17.46;81.95
71523;HTU21D;59343;51.102;5.884;2022-09-09T04:56:43;17.48;81.91
71523;HTU21D;59343;51.102;5.884;2022-09-09T04:59:10;17.48;82.03
71523;HTU21D;59343;51.102;5.884;2022-09-09T05:01:42;17.47;82.10
71523;HTU21D;59343;51.102;5.884;2022-09-09T05:04:08;17.46;81.86
71523;HTU21D;59343;51.102;5.884;2022-09-09T05:06:34;17.46;81.76
71523;HTU21D;59343;51.102;5.884;2022-09-09T05:09:02;17.44;81.72
71523;HTU21D;59343;51.102;5.884;2022-09-09T05:11:31;17.44;81.65
71523;HTU21D;59343;51.102;5.884;2022-09-09T05:14:09;17.41;81.70
71523;HTU21D;59343;51.102;5.884;2022-09-09T05:16:37;17.41;81.77
71523;HTU21D;59343;51.102;5.884;2022-09-09T05:19:03;17.39;81.70
71523;HTU21D;59343;51.102;5.884;2022-09-09T05:21:40;17.37;81.79
71523;HTU21D;59343;51.102;5.884;2022-09-09T05:24:07;17.39;81.75
71523;HTU21D;59343;51.102;5.884;2022-09-09T05:26:34;17.37;81.80
71523;HTU21D;59343;51.102;5.884;2022-09-09T05:29:01;17.35;81.85
71523;HTU21D;59343;51.102;5.884;2022-09-09T05:31:30;17.35;81.71
71523;HTU21D;59343;51.102;5.884;2022-09-09T05:33:56;17.35;81.52
71523;HTU21D;59343;51.102;5.884;2022-09-09T05:36:22;17.34;81.52
71523;HTU21D;59343;51.102;5.884;2022-09-09T05:38:53;17.31;81.77
71523;HTU21D;59343;51.102;5.884;2022-09-09T05:41:22;17.29;81.64
71523;HTU21D;59343;51.102;5.884;2022-09-09T05:43:50;17.32;81.49
71523;HTU21D;59343;51.102;5.884;2022-09-09T05:46:19;17.31;81.62
71523;HTU21D;59343;51.102;5.884;2022-09-09T05:48:49;17.32;81.34
71523;HTU21D;59343;51.102;5.884;2022-09-09T05:51:25;17.34;81.33
71523;HTU21D;59343;51.102;5.884;2022-09-09T05:53:54;17.35;81.34
71523;HTU21D;59343;51.102;5.884;2022-09-09T05:56:29;17.38;81.14
71523;HTU21D;59343;51.102;5.884;2022-09-09T05:58:56;17.38;81.01
71523;HTU21D;59343;51.102;5.884;2022-09-09T06:01:26;17.43;81.16
71523;HTU21D;59343;51.102;5.884;2022-09-09T06:03:53;17.46;80.97
71523;HTU21D;59343;51.102;5.884;2022-09-09T06:06:27;17.51;80.65
71523;HTU21D;59343;51.102;5.884;2022-09-09T06:08:57;17.51;80.70
71523;HTU21D;59343;51.102;5.884;2022-09-09T06:11:27;17.51;80.79
71523;HTU21D;59343;51.102;5.884;2022-09-09T06:13:53;17.51;80.55
71523;HTU21D;59343;51.102;5.884;2022-09-09T06:16:23;17.53;80.39
71523;HTU21D;59343;51.102;5.884;2022-09-09T06:18:51;17.59;80.30
71523;HTU21D;59343;51.102;5.884;2022-09-09T06:21:20;17.65;79.88
71523;HTU21D;59343;51.102;5.884;2022-09-09T06:23:47;17.68;79.90
71523;HTU21D;59343;51.102;5.884;2022-09-09T06:26:20;17.75;79.74
71523;HTU21D;59343;51.102;5.884;2022-09-09T06:28:50;17.84;79.83
71523;HTU21D;59343;51.102;5.884;2022-09-09T06:31:19;17.93;79.17
71523;HTU21D;59343;51.102;5.884;2022-09-09T06:33:50;17.94;78.81
71523;HTU21D;59343;51.102;5.884;2022-09-09T06:36:26;17.97;78.96
71523;HTU21D;59343;51.102;5.884;2022-09-09T06:38:53;18.02;78.95
71523;HTU21D;59343;51.102;5.884;2022-09-09T06:41:21;18.05;78.73
71523;HTU21D;59343;51.102;5.884;2022-09-09T06:43:48;18.06;78.65
71523;HTU21D;59343;51.102;5.884;2022-09-09T06:46:21;18.05;78.52
71523;HTU21D;59343;51.102;5.884;2022-09-09T06:48:48;18.05;78.49
71523;HTU21D;59343;51.102;5.884;2022-09-09T06:51:21;18.10;78.62
71523;HTU21D;59343;51.102;5.884;2022-09-09T06:53:51;18.10;78.69
71523;HTU21D;59343;51.102;5.884;2022-09-09T06:56:21;18.11;78.09
71523;HTU21D;59343;51.102;5.884;2022-09-09T06:58:51;18.10;78.16
71523;HTU21D;59343;51.102;5.884;2022-09-09T07:01:25;18.11;78.00
71523;HTU21D;59343;51.102;5.884;2022-09-09T07:03:54;18.12;78.05
71523;HTU21D;59343;51.102;5.884;2022-09-09T07:06:26;18.13;77.78
71523;HTU21D;59343;51.102;5.884;2022-09-09T07:09:02;18.14;77.97
71523;HTU21D;59343;51.102;5.884;2022-09-09T07:11:33;18.21;77.80
71523;HTU21D;59343;51.102;5.884;2022-09-09T07:14:00;18.25;77.34
71523;HTU21D;59343;51.102;5.884;2022-09-09T07:16:28;18.24;77.31
71523;HTU21D;59343;51.102;5.884;2022-09-09T07:18:57;18.24;77.15
71523;HTU21D;59343;51.102;5.884;2022-09-09T07:21:25;18.26;76.82
71523;HTU21D;59343;51.102;5.884;2022-09-09T07:23:53;18.28;76.98
71523;HTU21D;59343;51.102;5.884;2022-09-09T07:26:22;18.32;76.84
71523;HTU21D;59343;51.102;5.884;2022-09-09T07:28:48;18.35;76.84
71523;HTU21D;59343;51.102;5.884;2022-09-09T07:31:18;18.38;76.77
71523;HTU21D;59343;51.102;5.884;2022-09-09T07:33:45;18.43;76.14
71523;HTU21D;59343;51.102;5.884;2022-09-09T07:36:20;18.47;76.22
71523;HTU21D;59343;51.102;5.884;2022-09-09T07:38:55;18.55;75.92
71523;HTU21D;59343;51.102;5.884;2022-09-09T07:41:26;18.62;75.52
71523;HTU21D;59343;51.102;5.884;2022-09-09T07:43:53;18.68;75.19
71523;HTU21D;59343;51.102;5.884;2022-09-09T07:46:24;18.76;74.64
71523;HTU21D;59343;51.102;5.884;2022-09-09T07:48:54;18.80;74.54
71523;HTU21D;59343;51.102;5.884;2022-09-09T07:51:31;18.85;74.28
71523;HTU21D;59343;51.102;5.884;2022-09-09T07:54:00;18.83;74.28
71523;HTU21D;59343;51.102;5.884;2022-09-09T07:56:30;18.82;74.10
71523;HTU21D;59343;51.102;5.884;2022-09-09T07:58:58;18.80;73.54
71523;HTU21D;59343;51.102;5.884;2022-09-09T08:01:30;18.73;73.48
71523;HTU21D;59343;51.102;5.884;2022-09-09T08:04:03;18.71;73.44
71523;HTU21D;59343;51.102;5.884;2022-09-09T08:06:38;18.71;73.44
71523;HTU21D;59343;51.102;5.884;2022-09-09T08:09:06;18.65;73.44
71523;HTU21D;59343;51.102;5.884;2022-09-09T08:11:33;18.61;73.06
71523;HTU21D;59343;51.102;5.884;2022-09-09T08:14:01;18.63;73.08
71523;HTU21D;59343;51.102;5.884;2022-09-09T08:16:30;18.64;72.56
71523;HTU21D;59343;51.102;5.884;2022-09-09T08:18:58;18.62;72.70
71523;HTU21D;59343;51.102;5.884;2022-09-09T08:21:26;18.66;72.48
71523;HTU21D;59343;51.102;5.884;2022-09-09T08:23:56;18.69;72.68
71523;HTU21D;59343;51.102;5.884;2022-09-09T08:26:25;18.72;72.93
71523;HTU21D;59343;51.102;5.884;2022-09-09T08:28:55;18.81;72.56
71523;HTU21D;59343;51.102;5.884;2022-09-09T08:31:28;18.87;72.61
71523;HTU21D;59343;51.102;5.884;2022-09-09T08:33:56;18.95;72.02
71523;HTU21D;59343;51.102;5.884;2022-09-09T08:36:24;19.00;71.64
71523;HTU21D;59343;51.102;5.884;2022-09-09T08:38:53;19.05;71.22
71523;HTU21D;59343;51.102;5.884;2022-09-09T08:44:06;19.23;71.17
71523;HTU21D;59343;51.102;5.884;2022-09-09T08:49:41;19.60;70.69
71523;HTU21D;59343;51.102;5.884;2022-09-09T08:52:29;19.73;69.81
71523;HTU21D;59343;51.102;5.884;2022-09-09T08:57:57;19.66;68.46
71523;HTU21D;59343;51.102;5.884;2022-09-09T09:00:36;19.54;68.52
71523;HTU21D;59343;51.102;5.884;2022-09-09T09:03:33;19.51;69.26
71523;HTU21D;59343;51.102;5.884;2022-09-09T09:08:36;19.46;68.92
71523;HTU21D;59343;51.102;5.884;2022-09-09T09:11:04;19.50;68.97
71523;HTU21D;59343;51.102;5.884;2022-09-09T09:13:43;19.47;68.97
71523;HTU21D;59343;51.102;5.884;2022-09-09T09:18:54;19.41;69.74
71523;HTU21D;59343;51.102;5.884;2022-09-09T09:21:25;19.39;69.55
71523;HTU21D;59343;51.102;5.884;2022-09-09T09:23:58;19.36;69.31
71523;HTU21D;59343;51.102;5.884;2022-09-09T09:26:31;19.31;69.49
71523;HTU21D;59343;51.102;5.884;2022-09-09T09:29:08;19.36;69.65
71523;HTU21D;59343;51.102;5.884;2022-09-09T09:31:35;19.45;69.67
71523;HTU21D;59343;51.102;5.884;2022-09-09T09:34:01;19.52;68.76
71523;HTU21D;59343;51.102;5.884;2022-09-09T09:36:42;19.56;68.76
71523;HTU21D;59343;51.102;5.884;2022-09-09T09:39:27;19.61;68.55
71523;HTU21D;59343;51.102;5.884;2022-09-09T09:41:57;19.71;68.41
71523;HTU21D;59343;51.102;5.884;2022-09-09T09:44:31;19.76;68.12
71523;HTU21D;59343;51.102;5.884;2022-09-09T09:47:07;19.79;67.86
71523;HTU21D;59343;51.102;5.884;2022-09-09T09:49:34;19.73;68.04
71523;HTU21D;59343;51.102;5.884;2022-09-09T09:52:05;19.70;68.42
71523;HTU21D;59343;51.102;5.884;2022-09-09T09:54:41;19.68;68.78
71523;HTU21D;59343;51.102;5.884;2022-09-09T09:57:14;19.74;69.02
71523;HTU21D;59343;51.102;5.884;2022-09-09T09:59:43;19.82;68.68
71523;HTU21D;59343;51.102;5.884;2022-09-09T10:02:23;19.84;68.26
71523;HTU21D;59343;51.102;5.884;2022-09-09T10:07:28;19.84;68.17
71523;HTU21D;59343;51.102;5.884;2022-09-09T10:09:57;19.74;68.58
71523;HTU21D;59343;51.102;5.884;2022-09-09T10:12:35;19.63;68.84
71523;HTU21D;59343;51.102;5.884;2022-09-09T10:23:14;19.45;72.44
71523;HTU21D;59343;51.102;5.884;2022-09-09T10:26:10;19.50;72.01
71523;HTU21D;59343;51.102;5.884;2022-09-09T10:29:02;19.54;72.17
71523;HTU21D;59343;51.102;5.884;2022-09-09T10:40:34;19.60;70.46
71523;HTU21D;59343;51.102;5.884;2022-09-09T10:43:22;19.58;70.18
71523;HTU21D;59343;51.102;5.884;2022-09-09T10:46:21;19.54;70.22
71523;HTU21D;59343;51.102;5.884;2022-09-09T10:49:04;19.52;69.45
71523;HTU21D;59343;51.102;5.884;2022-09-09T10:52:01;19.47;69.48
71523;HTU21D;59343;51.102;5.884;2022-09-09T10:59:58;19.44;69.82
71523;HTU21D;59343;51.102;5.884;2022-09-09T11:02:31;19.52;69.90
71523;HTU21D;59343;51.102;5.884;2022-09-09T11:05:18;19.56;69.45
71523;HTU21D;59343;51.102;5.884;2022-09-09T11:11:55;19.55;69.55
71523;HTU21D;59343;51.102;5.884;2022-09-09T11:14:33;19.46;71.04
71523;HTU21D;59343;51.102;5.884;2022-09-09T11:17:03;19.30;72.56
71523;HTU21D;59343;51.102;5.884;2022-09-09T11:19:36;19.16;73.45
71523;HTU21D;59343;51.102;5.884;2022-09-09T11:22:30;18.99;74.52
71523;HTU21D;59343;51.102;5.884;2022-09-09T11:25:10;18.89;75.58
71523;HTU21D;59343;51.102;5.884;2022-09-09T11:28:15;18.77;76.25
71523;HTU21D;59343;51.102;5.884;2022-09-09T11:42:15;19.07;78.21
71523;HTU21D;59343;51.102;5.884;2022-09-09T11:44:42;19.16;78.08
71523;HTU21D;59343;51.102;5.884;2022-09-09T11:47:24;19.24;77.36
71523;HTU21D;59343;51.102;5.884;2022-09-09T11:49:52;19.29;77.47
71523;HTU21D;59343;51.102;5.884;2022-09-09T11:52:48;19.38;77.62
71523;HTU21D;59343;51.102;5.884;2022-09-09T11:55:25;19.46;77.87
71523;HTU21D;59343;51.102;5.884;2022-09-09T11:58:02;19.56;76.70
71523;HTU21D;59343;51.102;5.884;2022-09-09T12:00:40;19.59;76.66
71523;HTU21D;59343;51.102;5.884;2022-09-09T12:06:08;19.72;75.73
71523;HTU21D;59343;51.102;5.884;2022-09-09T12:08:35;19.79;74.67
71523;HTU21D;59343;51.102;5.884;2022-09-09T12:11:02;19.82;75.21
71523;HTU21D;59343;51.102;5.884;2022-09-09T12:13:31;19.92;74.28
71523;HTU21D;59343;51.102;5.884;2022-09-09T12:15:59;19.97;73.38
71523;HTU21D;59343;51.102;5.884;2022-09-09T12:18:33;19.92;72.96
71523;HTU21D;59343;51.102;5.884;2022-09-09T12:24:07;19.89;73.20
71523;HTU21D;59343;51.102;5.884;2022-09-09T12:26:47;19.90;73.26
71523;HTU21D;59343;51.102;5.884;2022-09-09T12:34:36;20.05;73.37
71523;HTU21D;59343;51.102;5.884;2022-09-09T12:37:15;20.18;72.96
71523;HTU21D;59343;51.102;5.884;2022-09-09T12:39:56;20.33;72.14
71523;HTU21D;59343;51.102;5.884;2022-09-09T12:42:31;20.37;71.51
71523;HTU21D;59343;51.102;5.884;2022-09-09T12:45:14;20.37;71.72
71523;HTU21D;59343;51.102;5.884;2022-09-09T12:47:52;20.40;71.35
71523;HTU21D;59343;51.102;5.884;2022-09-09T12:50:29;20.34;71.27
71523;HTU21D;59343;51.102;5.884;2022-09-09T12:53:09;20.34;71.35
71523;HTU21D;59343;51.102;5.884;2022-09-09T12:55:50;20.30;71.60
71523;HTU21D;59343;51.102;5.884;2022-09-09T12:58:18;20.30;71.72
71523;HTU21D;59343;51.102;5.884;2022-09-09T13:00:56;20.28;71.77
71523;HTU21D;59343;51.102;5.884;2022-09-09T13:03:28;20.22;72.09
71523;HTU21D;59343;51.102;5.884;2022-09-09T13:05:58;19.92;71.86
71523;HTU21D;59343;51.102;5.884;2022-09-09T13:08:28;19.46;72.64
71523;HTU21D;59343;51.102;5.884;2022-09-09T13:10:57;19.16;73.96
71523;HTU21D;59343;51.102;5.884;2022-09-09T13:13:36;18.93;74.45
71523;HTU21D;59343;51.102;5.884;2022-09-09T13:16:04;18.76;75.01
71523;HTU21D;59343;51.102;5.884;2022-09-09T13:18:36;18.61;75.66
71523;HTU21D;59343;51.102;5.884;2022-09-09T13:21:04;18.49;75.89
71523;HTU21D;59343;51.102;5.884;2022-09-09T13:23:32;18.40;76.56
71523;HTU21D;59343;51.102;5.884;2022-09-09T13:28:49;18.25;76.96
71523;HTU21D;59343;51.102;5.884;2022-09-09T13:31:27;18.21;77.34
71523;HTU21D;59343;51.102;5.884;2022-09-09T13:33:53;18.15;77.95
71523;HTU21D;59343;51.102;5.884;2022-09-09T13:36:30;18.15;77.98
71523;HTU21D;59343;51.102;5.884;2022-09-09T13:38:58;18.14;77.94
71523;HTU21D;59343;51.102;5.884;2022-09-09T13:41:36;18.13;77.73
71523;HTU21D;59343;51.102;5.884;2022-09-09T13:44:22;18.15;78.30
71523;HTU21D;59343;51.102;5.884;2022-09-09T13:49:28;18.28;78.77
71523;HTU21D;59343;51.102;5.884;2022-09-09T13:52:24;18.37;78.93
71523;HTU21D;59343;51.102;5.884;2022-09-09T13:54:52;18.46;79.07
71523;HTU21D;59343;51.102;5.884;2022-09-09T13:57:20;18.53;79.21
71523;HTU21D;59343;51.102;5.884;2022-09-09T13:59:48;18.66;79.44
71523;HTU21D;59343;51.102;5.884;2022-09-09T14:02:28;18.73;79.12
71523;HTU21D;59343;51.102;5.884;2022-09-09T14:04:55;18.83;79.07
71523;HTU21D;59343;51.102;5.884;2022-09-09T14:10:55;19.16;78.87
71523;HTU21D;59343;51.102;5.884;2022-09-09T14:13:23;19.27;78.47
71523;HTU21D;59343;51.102;5.884;2022-09-09T14:15:50;19.44;79.14
71523;HTU21D;59343;51.102;5.884;2022-09-09T14:18:16;19.71;79.12
71523;HTU21D;59343;51.102;5.884;2022-09-09T14:20:42;19.94;79.09
71523;HTU21D;59343;51.102;5.884;2022-09-09T14:23:10;20.18;78.80
71523;HTU21D;59343;51.102;5.884;2022-09-09T14:25:39;20.39;77.99
71523;HTU21D;59343;51.102;5.884;2022-09-09T14:28:11;20.55;77.55
71523;HTU21D;59343;51.102;5.884;2022-09-09T14:30:42;20.72;76.88
71523;HTU21D;59343;51.102;5.884;2022-09-09T14:33:12;20.71;75.21
71523;HTU21D;59343;51.102;5.884;2022-09-09T14:35:38;20.61;74.95
71523;HTU21D;59343;51.102;5.884;2022-09-09T14:38:05;20.61;75.78
71523;HTU21D;59343;51.102;5.884;2022-09-09T14:40:31;20.73;75.77
71523;HTU21D;59343;51.102;5.884;2022-09-09T14:42:57;20.76;74.29
71523;HTU21D;59343;51.102;5.884;2022-09-09T14:45:23;20.72;74.01
71523;HTU21D;59343;51.102;5.884;2022-09-09T14:47:51;20.73;73.34
71523;HTU21D;59343;51.102;5.884;2022-09-09T14:50:18;20.85;73.17
71523;HTU21D;59343;51.102;5.884;2022-09-09T14:52:45;20.98;72.80
71523;HTU21D;59343;51.102;5.884;2022-09-09T14:55:12;21.09;72.75
71523;HTU21D;59343;51.102;5.884;2022-09-09T14:57:39;21.19;71.27
71523;HTU21D;59343;51.102;5.884;2022-09-09T15:00:07;21.24;71.41
71523;HTU21D;59343;51.102;5.884;2022-09-09T15:02:34;21.25;70.49
71523;HTU21D;59343;51.102;5.884;2022-09-09T15:05:00;21.25;69.48
71523;HTU21D;59343;51.102;5.884;2022-09-09T15:07:27;21.28;69.04
71523;HTU21D;59343;51.102;5.884;2022-09-09T15:09:54;21.28;69.04
71523;HTU21D;59343;51.102;5.884;2022-09-09T15:12:21;21.37;68.84
71523;HTU21D;59343;51.102;5.884;2022-09-09T15:14:46;21.37;68.53
71523;HTU21D;59343;51.102;5.884;2022-09-09T15:17:13;21.32;68.49
71523;HTU21D;59343;51.102;5.884;2022-09-09T15:19:39;21.34;68.78
71523;HTU21D;59343;51.102;5.884;2022-09-09T15:22:05;21.46;69.40
71523;HTU21D;59343;51.102;5.884;2022-09-09T15:24:32;21.58;68.75
71523;HTU21D;59343;51.102;5.884;2022-09-09T15:26:59;21.62;67.78
71523;HTU21D;59343;51.102;5.884;2022-09-09T15:29:25;21.64;67.94
71523;HTU21D;59343;51.102;5.884;2022-09-09T15:31:50;21.66;67.72
71523;HTU21D;59343;51.102;5.884;2022-09-09T15:34:16;21.68;67.69
71523;HTU21D;59343;51.102;5.884;2022-09-09T15:36:44;21.67;67.10
71523;HTU21D;59343;51.102;5.884;2022-09-09T15:39:14;21.62;67.21
71523;HTU21D;59343;51.102;5.884;2022-09-09T15:41:45;21.54;67.23
71523;HTU21D;59343;51.102;5.884;2022-09-09T15:44:13;21.46;67.53
71523;HTU21D;59343;51.102;5.884;2022-09-09T15:49:16;21.40;67.39
71523;HTU21D;59343;51.102;5.884;2022-09-09T15:51:57;21.38;67.20
71523;HTU21D;59343;51.102;5.884;2022-09-09T15:54:25;21.37;67.39
71523;HTU21D;59343;51.102;5.884;2022-09-09T15:56:54;21.35;67.07
71523;HTU21D;59343;51.102;5.884;2022-09-09T15:59:23;21.33;67.39
71523;HTU21D;59343;51.102;5.884;2022-09-09T16:01:49;21.36;67.41
71523;HTU21D;59343;51.102;5.884;2022-09-09T16:04:21;21.38;66.97
71523;HTU21D;59343;51.102;5.884;2022-09-09T16:06:52;21.40;67.05
71523;HTU21D;59343;51.102;5.884;2022-09-09T16:09:18;21.44;66.14
71523;HTU21D;59343;51.102;5.884;2022-09-09T16:11:44;21.33;66.33
71523;HTU21D;59343;51.102;5.884;2022-09-09T16:14:13;21.27;66.50
71523;HTU21D;59343;51.102;5.884;2022-09-09T16:16:38;21.23;66.86
71523;HTU21D;59343;51.102;5.884;2022-09-09T16:19:07;21.17;67.05
71523;HTU21D;59343;51.102;5.884;2022-09-09T16:21:39;21.13;67.01
71523;HTU21D;59343;51.102;5.884;2022-09-09T16:24:07;21.07;67.34
71523;HTU21D;59343;51.102;5.884;2022-09-09T16:26:35;21.02;67.39
71523;HTU21D;59343;51.102;5.884;2022-09-09T16:29:02;21.00;67.52
71523;HTU21D;59343;51.102;5.884;2022-09-09T16:31:29;20.98;67.52
71523;HTU21D;59343;51.102;5.884;2022-09-09T16:33:56;20.98;67.60
71523;HTU21D;59343;51.102;5.884;2022-09-09T16:36:25;20.98;67.10
71523;HTU21D;59343;51.102;5.884;2022-09-09T16:38:56;20.94;67.36
71523;HTU21D;59343;51.102;5.884;2022-09-09T16:41:23;20.94;67.45
71523;HTU21D;59343;51.102;5.884;2022-09-09T16:43:56;20.88;67.46
71523;HTU21D;59343;51.102;5.884;2022-09-09T16:46:23;20.86;67.70
71523;HTU21D;59343;51.102;5.884;2022-09-09T16:48:50;20.84;67.69
71523;HTU21D;59343;51.102;5.884;2022-09-09T16:51:21;20.75;67.78
71523;HTU21D;59343;51.102;5.884;2022-09-09T16:53:49;20.69;68.04
71523;HTU21D;59343;51.102;5.884;2022-09-09T16:56:19;20.65;67.94
71523;HTU21D;59343;51.102;5.884;2022-09-09T16:58:56;20.59;68.26
71523;HTU21D;59343;51.102;5.884;2022-09-09T17:01:29;20.55;68.36
71523;HTU21D;59343;51.102;5.884;2022-09-09T17:03:58;20.53;68.20
71523;HTU21D;59343;51.102;5.884;2022-09-09T17:06:24;20.48;67.97
71523;HTU21D;59343;51.102;5.884;2022-09-09T17:08:58;20.41;68.15
71523;HTU21D;59343;51.102;5.884;2022-09-09T17:11:25;20.37;68.32
71523;HTU21D;59343;51.102;5.884;2022-09-09T17:13:52;20.33;68.46
71523;HTU21D;59343;51.102;5.884;2022-09-09T17:16:19;20.31;68.39
71523;HTU21D;59343;51.102;5.884;2022-09-09T17:18:49;20.24;67.84
71523;HTU21D;59343;51.102;5.884;2022-09-09T17:21:19;20.21;67.75
71523;HTU21D;59343;51.102;5.884;2022-09-09T17:23:46;20.17;67.81
71523;HTU21D;59343;51.102;5.884;2022-09-09T17:26:17;20.11;67.93
71523;HTU21D;59343;51.102;5.884;2022-09-09T17:28:45;20.04;68.17
71523;HTU21D;59343;51.102;5.884;2022-09-09T17:31:14;20.02;68.37
71523;HTU21D;59343;51.102;5.884;2022-09-09T17:34:07;19.97;68.60
71523;HTU21D;59343;51.102;5.884;2022-09-09T17:36:37;19.92;69.08
71523;HTU21D;59343;51.102;5.884;2022-09-09T17:39:05;19.92;69.34
71523;HTU21D;59343;51.102;5.884;2022-09-09T17:41:36;19.90;69.42
71523;HTU21D;59343;51.102;5.884;2022-09-09T17:44:16;19.89;69.76
71523;HTU21D;59343;51.102;5.884;2022-09-09T17:46:42;19.89;70.00
71523;HTU21D;59343;51.102;5.884;2022-09-09T17:49:14;19.89;70.26